• Join FlightAware (Why Join?)
  • Login
  • US Flag 
09:25AM EDT


 

Airport Tracker/Info


-or-


 

Live Flight TrackerFlight Track Log ✈ N670MW ✈ 18-Mar-2014 ✈ KMSP - KRRT

Flight Track Log - Related Links

Times and Time Zones

All times are in EDT time to prevent confusion due to time zone crossing. See the N670MW flight status page for this flight to view local times or setup timezone preferences in your user account.

Time Position Orientation Groundspeed Altitude Reporting Facility
EDT Latitude Longitude Course Direction KTS MPH feet Rate Location/Type
02:30PM 44.8839 -93.0850 83° East 240 276 5,800  Level Minneapolis Center
02:31PM 44.9650 -93.0836 North 297 342 9,300 3,600 Climbing Minneapolis Center
02:32PM 45.0444 -93.0950 354° North 291 335 13,300 3,660 Climbing Minneapolis Center
02:33PM 45.1461 -93.1072 355° North 307 353 16,900 3,300 Climbing Minneapolis Center
02:34PM 45.2322 -93.1481 342° North 322 371 20,100 3,000 Climbing Minneapolis Center
02:35PM 45.3186 -93.1986 338° Northwest 333 383 23,100 2,880 Climbing Minneapolis Center
02:36PM 45.4081 -93.2478 339° North 341 392 26,100 2,520 Climbing Minneapolis Center
02:37PM 45.4981 -93.2972 339° North 343 395 28,400 2,040 Climbing Minneapolis Center
02:38PM 45.5947 -93.3511 339° North 364 419 30,400 1,740 Climbing Minneapolis Center
02:39PM 45.6942 -93.4067 339° North 378 435 32,000 780 Climbing Minneapolis Center
02:40PM 45.8247 -93.4803 339° North 421 484 32,000  Level Minneapolis Center
02:41PM 45.9392 -93.5456 338° Northwest 440 506 32,000  Level Minneapolis Center
02:42PM 46.0525 -93.6089 339° North 440 506 32,000  Level Minneapolis Center
02:43PM 46.1656 -93.6731 339° North 440 506 32,000  Level Minneapolis Center
02:45PM 46.2922 -93.7464 338° Northwest 440 506 32,000  Level Minneapolis Center
02:46PM 46.4053 -93.8103 339° North 440 506 32,000  Level Minneapolis Center
02:47PM 46.5175 -93.8758 338° Northwest 439 505 32,000 -60 Level Minneapolis Center
02:48PM 46.6303 -93.9411 338° Northwest 438 504 31,900  Descending Minneapolis Center
02:49PM 46.7417 -94.0067 338° Northwest 437 503 32,000  Climbing Minneapolis Center
02:50PM 46.8539 -94.0739 338° Northwest 435 501 32,000 -60 Level Minneapolis Center
02:51PM 46.9667 -94.1364 339° North 435 501 31,900 -60 Descending Minneapolis Center
02:52PM 47.0789 -94.2003 339° North 435 501 31,900 -900 Level Minneapolis Center
02:53PM 47.2086 -94.2811 337° Northwest 425 489 30,100 -1,620 Descending Minneapolis Center
02:54PM 47.3150 -94.3458 338° Northwest 419 482 28,600 -1,380 Descending Minneapolis Center
02:55PM 47.4258 -94.4119 338° Northwest 421 484 27,300 -1,320 Descending Minneapolis Center
02:56PM 47.5400 -94.4797 338° Northwest 433 498 25,900 -1,320 Descending Minneapolis Center
02:57PM 47.6542 -94.5483 338° Northwest 439 505 24,600 -1,560 Descending Minneapolis Center
02:58PM 47.7608 -94.6139 338° Northwest 428 493 22,800 -1,800 Descending Minneapolis Center
02:59PM 47.8614 -94.6767 337° Northwest 406 467 21,000 -1,680 Descending Minneapolis Center
03:00PM 47.9592 -94.7344 338° Northwest 389 448 19,400 -1,860 Descending Minneapolis Center
03:01PM 48.0725 -94.8042 338° Northwest 375 432 17,200 -1,980 Descending Minneapolis Center
03:02PM 48.1672 -94.8622 338° Northwest 373 429 15,400 -1,980 Descending Minneapolis Center
03:03PM 48.2569 -94.9203 337° Northwest 361 415 13,200 -1,860 Descending Minneapolis Center
03:04PM 48.3433 -94.9719 338° Northwest 344 396 11,600 -1,620 Descending Minneapolis Center
03:05PM 48.4228 -95.0247 336° Northwest 323 372 10,000 -1,500 Descending Minneapolis Center
03:06PM 48.4975 -95.0694 338° Northwest 301 346 8,600 -1,500 Descending Minneapolis Center
03:07PM 48.5689 -95.1089 340° North 286 329 7,000 -1,620 Descending Minneapolis Center
03:09PM 48.6866 -95.1814 340° North  Level FlightAware Approximate
03:16PM 48.9333 -95.3333 342° North  Level FlightAware Approximate
03:17PM 48.9415 -95.3485 342° North  Level Estimated
03:18PM 48.9415 -95.3485 342° North  Level Estimated